Wednesday, October 18, 2017, 3:34 AM EDT
Back to Local

KVTA, Newark Heath Airport

Location: Heath, OH, United States Lat: 40.017
Local Time: 3:34 AM EDT ( 7:34 GMT) Lon: -82.467
Time Zone: US/Eastern Elev: 882 ft

Show me the last for .
Show Decoded

2017-10-18 02:54 METAR KVTA 180654Z AUTO 00000KT 10SM CLR 04/02 A3030 RMK AO2 SLP260 T00390022 =
2017-10-18 01:54 METAR KVTA 180554Z AUTO 00000KT 10SM CLR 05/03 A3029 RMK AO2 SLP259 T00500033
                 10122 20044 50004 =
2017-10-18 00:54 METAR KVTA 180454Z AUTO 00000KT 10SM CLR 06/04 A3029 RMK AO2 SLP259 T00560039
                 401940017 =
2017-10-17 23:54 METAR KVTA 180354Z AUTO 00000KT 10SM CLR 07/04 A3029 RMK AO2 SLP259 T00670044 =
2017-10-17 22:54 METAR KVTA 180254Z AUTO 00000KT 10SM CLR 07/04 A3028 RMK AO2 SLP255 T00670044
                 53008 =
2017-10-17 21:54 METAR KVTA 180154Z AUTO 00000KT 10SM CLR 08/05 A3027 RMK AO2 SLP253 T00830050 =
2017-10-17 20:54 METAR KVTA 180054Z AUTO 00000KT 10SM CLR 10/06 A3026 RMK AO2 SLP251 T01000056 =
2017-10-17 19:54 METAR KVTA 172354Z AUTO 19003KT 10SM CLR 12/04 A3026 RMK AO2 SLP249 T01220039
                 10194 20122 53000 =
2017-10-17 18:54 METAR KVTA 172254Z AUTO 21004KT 10SM CLR 15/03 A3025 RMK AO2 SLP246 T01500033 =
2017-10-17 17:54 METAR KVTA 172154Z AUTO 22005KT 10SM CLR 18/03 A3025 RMK AO2 SLP245 T01780028 =
2017-10-17 16:54 METAR KVTA 172054Z AUTO 21008KT 10SM CLR 19/02 A3025 RMK AO2 SLP246 T01890022
                 56016 =
2017-10-17 15:54 METAR KVTA 171954Z AUTO 10SM CLR 19/03 A3026 RMK AO2 SLP250 T01890028 =
2017-10-17 14:54 METAR KVTA 171854Z AUTO 20007KT 10SM CLR 19/03 A3028 RMK AO2 SLP256 T01890033 =
2017-10-17 13:54 METAR KVTA 171754Z AUTO 22008KT 10SM CLR 18/02 A3030 RMK AO2 SLP263 T01780022
                 10178 20022 58020 =
2017-10-17 12:54 METAR KVTA 171654Z AUTO 23008KT 10SM CLR 17/02 A3033 RMK AO2 SLP273 T01720022 =
2017-10-17 11:54 METAR KVTA 171554Z AUTO 25011KT 10SM CLR 16/02 A3034 RMK AO2 SLP277 T01610022 =
2017-10-17 10:54 METAR KVTA 171454Z AUTO VRB04KT 10SM CLR 13/05 A3036 RMK AO2 SLP284 T01330050
                 58001 =
2017-10-17 09:54 METAR KVTA 171354Z AUTO 18004KT 10SM CLR 09/06 A3036 RMK AO2 SLP286 T00890056 =
2017-10-17 08:54 METAR KVTA 171254Z AUTO 00000KT 8SM SCT002 04/03 A3037 RMK AO2 SLP287 T00440033
                 =
2017-10-17 08:32 METAR KVTA 171232Z AUTO 00000KT 9SM FEW002 03/01 A3036 RMK AO2 T00280011 =
2017-10-17 07:54 METAR KVTA 171154Z AUTO 00000KT 10SM CLR 02/01 A3036 RMK AO2 SLP285 T00220006
                 10039 20017 51010 =
2017-10-17 06:54 METAR KVTA 171054Z AUTO 00000KT 8SM CLR 02/01 A3035 RMK AO2 SLP282 T00170006 =
2017-10-17 05:54 METAR KVTA 170954Z AUTO 00000KT 10SM CLR 02/01 A3034 RMK AO2 SLP278 T00220006 =
2017-10-17 05:14 METAR KVTA 170914Z AUTO 00000KT 3SM BR CLR 02/01 A3033 RMK AO2 T00220011 =
2017-10-17 04:54 METAR KVTA 170854Z AUTO 00000KT 1 1/2SM BR CLR 03/01 A3033 RMK AO2 SLP272
                 T00280011 53004 =
2017-10-17 04:49 METAR KVTA 170849Z AUTO 00000KT 1 3/4SM BR CLR 02/01 A3032 RMK AO2 =
2017-10-17 03:54 METAR KVTA 170754Z AUTO 00000KT 10SM CLR 03/02 A3032 RMK AO2 SLP268 T00330017 =
2017-10-17 03:52 METAR KVTA 170752Z AUTO 00000KT 10SM CLR 03/02 A3032 RMK AO2 =
2017-10-17 03:43 METAR KVTA 170743Z AUTO 00000KT 2SM BR CLR 03/01 A3032 RMK AO2 T00280011 =

Support USWX by starting your Amazon purchase here.